Terminal Aerodrome Forecast
Issued by NWS Shreveport, LA

Home | Current Version | Previous Version | Text Only | Print | Product List | Glossary On
Versions: 1 2 3 4 5 6 7 8 9 10 11 12 13 14 15 16 17
000
FTUS44 KSHV 261741
TAFLFK
TAF
KLFK 261741Z 2618/2718 20010G18KT P6SM SCT027 BKN035
      TEMPO 2619/2623 VRB15G30KT 3SM TSRA BR OVC015CB
     FM262300 26016KT P6SM SKC
     FM270100 30010KT P6SM SCT030
     FM270600 34005KT P6SM SKC=

USA.gov is the U.S. government's official web portal to all federal, state and local government web resources and services.